createdAt,value
2022-10-12T00:02:16.306Z,7.84
2022-10-12T00:07:18.895Z,7.83
2022-10-12T00:12:21.273Z,7.81
2022-10-12T00:17:23.696Z,7.80
2022-10-12T00:22:26.295Z,7.80
2022-10-12T00:27:28.697Z,7.76
2022-10-12T00:32:31.253Z,7.72
2022-10-12T00:37:33.778Z,7.71
2022-10-12T00:42:36.203Z,7.74
2022-10-12T00:47:44.804Z,7.81
2022-10-12T00:52:55.786Z,7.87
2022-10-12T00:57:58.852Z,7.94
2022-10-12T01:03:01.921Z,7.96
2022-10-12T01:08:04.464Z,7.98
2022-10-12T01:13:07.465Z,7.99
2022-10-12T01:18:19.039Z,8.00
2022-10-12T01:23:59.494Z,7.99
2022-10-12T01:29:36.965Z,7.95
2022-10-12T01:35:13.744Z,7.86
2022-10-12T01:40:23.910Z,7.80
2022-10-12T01:45:26.465Z,7.76
2022-10-12T01:50:41.557Z,7.77
2022-10-12T01:55:57.237Z,7.82
2022-10-12T02:01:38.717Z,7.83
2022-10-12T02:06:45.063Z,7.83
2022-10-12T02:11:52.535Z,7.79
2022-10-12T02:17:00.395Z,7.71
2022-10-12T02:22:05.971Z,7.57
2022-10-12T02:27:11.071Z,7.43
2022-10-12T02:32:38.489Z,7.29
2022-10-12T02:37:46.435Z,7.12
2022-10-12T02:43:11.131Z,6.97
2022-10-12T02:48:20.537Z,6.86
2022-10-12T02:53:26.209Z,6.79
2022-10-12T02:58:28.688Z,6.73
2022-10-12T03:03:31.135Z,6.69
2022-10-12T03:08:33.958Z,6.66
2022-10-12T03:13:36.769Z,6.68
2022-10-12T03:18:39.839Z,6.71
2022-10-12T03:23:42.310Z,6.75
2022-10-12T03:28:45.286Z,6.80
2022-10-12T03:33:47.960Z,6.89
2022-10-12T03:38:50.351Z,6.99
2022-10-12T03:43:52.852Z,7.04
2022-10-12T03:48:55.355Z,7.10
2022-10-12T03:53:57.817Z,7.15
2022-10-12T03:59:00.281Z,7.21
2022-10-12T04:04:02.767Z,7.24
2022-10-12T04:09:05.255Z,7.26
2022-10-12T04:14:07.701Z,7.25
2022-10-12T04:19:13.450Z,7.25
2022-10-12T04:24:15.903Z,7.26
2022-10-12T04:29:18.353Z,7.28
2022-10-12T04:34:20.778Z,7.29
2022-10-12T04:39:23.770Z,7.29
2022-10-12T04:44:29.808Z,7.29
2022-10-12T04:49:34.559Z,7.32
2022-10-12T04:54:36.944Z,7.34
2022-10-12T04:59:39.352Z,7.37
2022-10-12T05:04:41.848Z,7.43
2022-10-12T05:09:44.300Z,7.49
2022-10-12T05:14:46.841Z,7.55
2022-10-12T05:19:49.237Z,7.61
2022-10-12T05:24:53.969Z,7.70
2022-10-12T05:29:56.572Z,7.80
2022-10-12T05:34:58.996Z,7.88
2022-10-12T05:40:02.991Z,7.95
2022-10-12T05:45:09.342Z,8.02
2022-10-12T05:50:11.826Z,8.11
2022-10-12T05:55:14.622Z,8.21
2022-10-12T06:00:19.265Z,8.31
2022-10-12T06:05:21.752Z,8.42
2022-10-12T06:10:27.738Z,8.54
2022-10-12T06:15:33.061Z,8.65
2022-10-12T06:20:36.246Z,8.75
2022-10-12T06:25:38.907Z,8.82
2022-10-12T06:30:43.368Z,8.94
2022-10-12T06:35:52.136Z,9.06
2022-10-12T06:40:54.879Z,9.19
2022-10-12T06:46:01.893Z,9.32
2022-10-12T06:51:04.686Z,9.45
2022-10-12T06:56:08.735Z,9.61
2022-10-12T07:01:11.327Z,9.80
2022-10-12T07:06:14.985Z,9.98
2022-10-12T07:11:17.407Z,10.10
2022-10-12T07:16:19.951Z,10.25
2022-10-12T07:21:22.709Z,10.50
2022-10-12T07:26:25.169Z,10.88
2022-10-12T07:31:28.762Z,11.32
2022-10-12T07:36:57.524Z,11.66
2022-10-12T07:41:54.403Z,11.76
2022-10-12T07:46:57.142Z,11.85
2022-10-12T07:51:59.711Z,11.93
2022-10-12T07:57:02.154Z,12.06
2022-10-12T08:02:04.829Z,12.20
2022-10-12T08:07:07.264Z,12.20
2022-10-12T08:12:10.817Z,12.25
2022-10-12T08:17:13.284Z,12.48
2022-10-12T08:22:15.775Z,12.74
2022-10-12T08:27:18.222Z,13.22
2022-10-12T08:32:22.096Z,13.45
2022-10-12T08:37:24.740Z,13.34
2022-10-12T08:42:41.192Z,13.06
2022-10-12T08:47:48.813Z,13.02
2022-10-12T08:53:00.134Z,13.22
2022-10-12T08:58:03.463Z,13.51
2022-10-12T09:03:42.743Z,13.69
2022-10-12T09:08:54.504Z,13.83
2022-10-12T09:14:08.659Z,13.72
2022-10-12T09:19:20.619Z,13.77
2022-10-12T09:24:26.705Z,13.92
2022-10-12T09:29:31.293Z,13.98
2022-10-12T09:34:34.747Z,14.08
2022-10-12T09:39:39.522Z,14.19
2022-10-12T09:44:48.268Z,14.27
2022-10-12T09:49:52.420Z,14.33
2022-10-12T09:55:05.273Z,14.49
2022-10-12T10:00:27.192Z,14.91
2022-10-12T10:05:34.786Z,15.48
2022-10-12T10:10:37.418Z,15.89
2022-10-12T10:15:43.420Z,16.27
2022-10-12T10:20:55.004Z,16.54
2022-10-12T10:26:09.400Z,16.34
2022-10-12T10:31:16.332Z,15.80
2022-10-12T10:36:23.214Z,15.51
2022-10-12T10:41:31.429Z,15.49
2022-10-12T10:46:37.525Z,15.63
2022-10-12T10:51:49.407Z,15.95
2022-10-12T10:56:56.702Z,16.17
2022-10-12T11:02:09.701Z,16.45
2022-10-12T11:07:51.502Z,16.84
2022-10-12T11:13:03.291Z,17.01
2022-10-12T11:18:20.979Z,16.95
2022-10-12T11:23:29.543Z,16.56
2022-10-12T11:28:34.357Z,16.06
2022-10-12T11:33:40.995Z,15.85
2022-10-12T11:38:48.360Z,15.56
2022-10-12T11:44:17.922Z,15.22
2022-10-12T11:49:31.327Z,15.28
2022-10-12T11:54:41.745Z,15.58
2022-10-12T11:59:47.954Z,15.94
2022-10-12T12:04:51.781Z,16.42
2022-10-12T12:09:54.848Z,16.77
2022-10-12T12:15:18.649Z,16.94
2022-10-12T12:20:43.086Z,16.84
2022-10-12T12:25:45.653Z,16.64
2022-10-12T12:31:07.038Z,16.61
2022-10-12T12:36:12.757Z,16.56
2022-10-12T12:41:34.433Z,16.67
2022-10-12T12:46:55.443Z,16.79
2022-10-12T12:51:58.054Z,16.75
2022-10-12T12:57:18.580Z,16.71
2022-10-12T13:02:53.585Z,16.79
2022-10-12T13:08:15.021Z,17.06
2022-10-12T13:13:39.288Z,17.01
2022-10-12T13:19:03.890Z,16.79
2022-10-12T13:24:33.449Z,16.59
2022-10-12T13:29:45.658Z,16.45
2022-10-12T13:34:54.835Z,16.24
2022-10-12T13:39:57.282Z,15.92
2022-10-12T13:45:03.304Z,15.68
2022-10-12T13:50:18.290Z,15.50
2022-10-12T13:55:26.621Z,15.38
2022-10-12T14:00:30.243Z,15.22
2022-10-12T14:05:33.649Z,15.01
2022-10-12T14:10:38.059Z,14.84
2022-10-12T14:15:41.400Z,14.68
2022-10-12T14:20:43.978Z,14.56
2022-10-12T14:25:55.317Z,14.51
2022-10-12T14:30:58.275Z,14.49
2022-10-12T14:36:27.192Z,14.51
2022-10-12T14:41:44.228Z,14.49
2022-10-12T14:47:10.752Z,14.47
2022-10-12T14:52:20.744Z,14.36
2022-10-12T14:57:24.907Z,14.24
2022-10-12T15:02:29.966Z,14.13
2022-10-12T15:07:34.039Z,13.95
2022-10-12T15:12:37.162Z,13.76
2022-10-12T15:17:39.586Z,13.63
2022-10-12T15:22:42.094Z,13.54
2022-10-12T15:27:44.678Z,13.47
2022-10-12T15:32:47.799Z,13.40
2022-10-12T15:37:51.229Z,13.31
2022-10-12T15:42:53.847Z,13.18
2022-10-12T15:47:56.337Z,13.02
2022-10-12T15:53:02.032Z,12.85
2022-10-12T15:58:04.683Z,12.69
2022-10-12T16:03:07.234Z,12.50
2022-10-12T16:08:09.837Z,12.40
2022-10-12T16:13:13.705Z,12.32
2022-10-12T16:18:16.616Z,12.21
2022-10-12T16:23:24.712Z,12.09
2022-10-12T16:28:29.773Z,11.97
2022-10-12T16:33:32.288Z,11.88
2022-10-12T16:38:36.240Z,11.82
2022-10-12T16:43:39.138Z,11.79
2022-10-12T16:48:41.540Z,11.78
2022-10-12T16:53:44.295Z,11.80
2022-10-12T16:58:48.318Z,11.81
2022-10-12T17:03:54.737Z,11.82
2022-10-12T17:09:01.095Z,11.80
2022-10-12T17:14:08.580Z,11.75
2022-10-12T17:19:16.823Z,11.69
2022-10-12T17:24:24.537Z,11.66
2022-10-12T17:29:31.899Z,11.64
2022-10-12T17:34:40.984Z,11.62
2022-10-12T17:39:47.830Z,11.59
2022-10-12T17:44:50.821Z,11.56
2022-10-12T17:49:53.414Z,11.54
2022-10-12T17:54:55.859Z,11.53
2022-10-12T17:59:58.295Z,11.48
2022-10-12T18:05:00.797Z,11.43
2022-10-12T18:10:04.956Z,11.42
2022-10-12T18:15:09.340Z,11.40
2022-10-12T18:20:12.957Z,11.37
2022-10-12T18:25:15.780Z,11.36
2022-10-12T18:30:18.435Z,11.37
2022-10-12T18:35:21.134Z,11.41
2022-10-12T18:40:23.633Z,11.45
2022-10-12T18:45:26.334Z,11.43
2022-10-12T18:50:28.818Z,11.41
2022-10-12T18:55:32.225Z,11.38
2022-10-12T19:00:34.687Z,11.36
2022-10-12T19:05:37.948Z,11.35
2022-10-12T19:10:41.087Z,11.37
2022-10-12T19:15:43.543Z,11.35
2022-10-12T19:20:46.007Z,11.30
2022-10-12T19:25:49.055Z,11.28
2022-10-12T19:30:54.038Z,11.23
2022-10-12T19:35:56.817Z,11.19
2022-10-12T19:41:01.097Z,11.14
2022-10-12T19:46:08.009Z,11.08
2022-10-12T19:51:14.216Z,11.02
2022-10-12T19:56:20.763Z,10.99
2022-10-12T20:01:27.391Z,10.96
2022-10-12T20:06:32.987Z,10.93
2022-10-12T20:11:35.755Z,10.88
2022-10-12T20:16:38.248Z,10.87
2022-10-12T20:21:40.796Z,10.84
2022-10-12T20:26:43.632Z,10.82
2022-10-12T20:31:46.249Z,10.79
2022-10-12T20:36:48.725Z,10.73
2022-10-12T20:41:51.167Z,10.67
2022-10-12T20:46:53.681Z,10.56
2022-10-12T20:51:56.353Z,10.45
2022-10-12T20:57:00.332Z,10.35
2022-10-12T21:02:05.745Z,10.21
2022-10-12T21:07:08.890Z,10.03
2022-10-12T21:12:11.812Z,9.88
2022-10-12T21:17:15.468Z,9.67
2022-10-12T21:22:18.610Z,9.51
2022-10-12T21:27:21.433Z,9.41
2022-10-12T21:32:23.885Z,9.35
2022-10-12T21:37:28.485Z,9.35
2022-10-12T21:42:30.912Z,9.40
2022-10-12T21:47:33.383Z,9.46
2022-10-12T21:52:36.149Z,9.50
2022-10-12T21:57:41.678Z,9.52
2022-10-12T22:02:44.113Z,9.47
2022-10-12T22:07:47.204Z,9.39
2022-10-12T22:12:49.823Z,9.29
2022-10-12T22:17:52.235Z,9.22
2022-10-12T22:22:54.713Z,9.19
2022-10-12T22:27:57.269Z,9.16
2022-10-12T22:32:59.621Z,9.15
2022-10-12T22:38:02.040Z,9.12
2022-10-12T22:43:04.435Z,9.12
2022-10-12T22:48:06.927Z,9.15
2022-10-12T22:53:09.588Z,9.21
2022-10-12T22:58:12.594Z,9.28
2022-10-12T23:03:15.127Z,9.31
2022-10-12T23:08:17.675Z,9.30
2022-10-12T23:13:20.191Z,9.27
2022-10-12T23:18:22.604Z,9.21
2022-10-12T23:23:25.212Z,9.20
2022-10-12T23:28:28.427Z,9.18
2022-10-12T23:33:31.004Z,9.14
2022-10-12T23:38:34.942Z,9.11
2022-10-12T23:43:37.715Z,9.10
2022-10-12T23:48:40.842Z,9.11
2022-10-12T23:53:43.509Z,9.09
2022-10-12T23:58:47.027Z,9.06
